Time;durP1;ratioP1;P1;durP2;ratioP2;P2;SDS_P1;SDS_P2;PMS_P1;PMS_P2;Temp;Humidity;BMP_temperature;BMP_pressure;BME280_temperature;BME280_humidity;BME280_pressure;Samples;Min_cycle;Max_cycle;Signal;HPM_P1;HPM_P2
2021/03/06 00:02:06;;;;;;;;;;;19.60;51.20;;;;;;5026945;28;1396;-64
2021/03/06 00:04:31;;;;;;;;;;;19.60;51.20;;;;;;5051314;28;1308;-63
2021/03/06 00:06:56;;;;;;;;;;;19.60;51.20;;;;;;5051697;28;1619;-63
2021/03/06 00:09:22;;;;;;;;;;;19.60;51.20;;;;;;5052929;28;1032;-63
2021/03/06 00:11:47;;;;;;;;;;;19.60;51.30;;;;;;5053112;28;1051;-64
2021/03/06 00:14:13;;;;;;;;;;;19.50;51.20;;;;;;5052783;28;1315;-64
2021/03/06 00:16:38;;;;;;;;;;;19.60;51.30;;;;;;5049488;28;1902;-64
2021/03/06 00:19:06;;;;;;;;;;;19.50;51.30;;;;;;5050941;28;1306;-64
2021/03/06 00:21:32;;;;;;;;;;;19.50;51.40;;;;;;5054277;28;1318;-64
2021/03/06 00:23:57;;;;;;;;;;;19.50;51.30;;;;;;5052777;28;1326;-64
2021/03/06 00:26:23;;;;;;;;;;;19.50;51.40;;;;;;5054115;28;1263;-64
2021/03/06 00:28:48;;;;;;;;;;;19.50;51.40;;;;;;5053512;28;1279;-64
2021/03/06 00:31:13;;;;;;;;;;;19.50;51.40;;;;;;5053390;28;1313;-65
2021/03/06 00:33:39;;;;;;;;;;;19.50;51.40;;;;;;5029583;28;1354;-65
2021/03/06 00:36:05;;;;;;;;;;;19.50;51.40;;;;;;5035203;28;1168;-64
2021/03/06 00:38:30;;;;;;;;;;;19.50;51.40;;;;;;5033333;28;1902;-64
2021/03/06 00:40:55;;;;;;;;;;;19.50;51.40;;;;;;5033212;28;1251;-64
2021/03/06 00:43:21;;;;;;;;;;;19.50;51.50;;;;;;5028778;28;1298;-66
2021/03/06 00:45:46;;;;;;;;;;;19.50;51.50;;;;;;5026588;28;1227;-64
2021/03/06 00:48:12;;;;;;;;;;;19.50;51.50;;;;;;5027884;28;1256;-64
2021/03/06 00:50:37;;;;;;;;;;;19.50;51.50;;;;;;5027802;28;1235;-64
2021/03/06 00:53:03;;;;;;;;;;;19.50;51.50;;;;;;5033556;28;1339;-64
2021/03/06 00:55:28;;;;;;;;;;;19.40;52.10;;;;;;5049327;28;1106;-65
2021/03/06 00:57:54;;;;;;;;;;;19.50;51.60;;;;;;5033058;28;1947;-64
2021/03/06 01:00:19;;;;;;;;;;;19.50;51.60;;;;;;5033617;28;1318;-64
2021/03/06 01:02:45;;;;;;;;;;;19.50;52.20;;;;;;5030701;28;1263;-64
2021/03/06 01:05:11;;;;;;;;;;;19.50;51.60;;;;;;5053308;28;1294;-64
2021/03/06 01:07:36;;;;;;;;;;;19.40;51.60;;;;;;5048838;28;1396;-63
2021/03/06 01:10:31;;;;;;;;;;;19.40;51.60;;;;;;5044370;28;1055;-63
2021/03/06 01:12:56;;;;;;;;;;;19.40;51.60;;;;;;5044162;28;1286;-63
2021/03/06 01:15:22;;;;;;;;;;;19.40;51.60;;;;;;5052078;28;1500;-65
2021/03/06 01:17:47;;;;;;;;;;;19.40;51.60;;;;;;5052759;28;1911;-65
2021/03/06 01:20:13;;;;;;;;;;;19.40;51.60;;;;;;5053278;28;1040;-65
2021/03/06 01:22:38;;;;;;;;;;;19.40;51.60;;;;;;5051698;28;1386;-65
2021/03/06 01:25:04;;;;;;;;;;;19.40;51.70;;;;;;5039765;28;1236;-65
2021/03/06 01:27:30;;;;;;;;;;;19.40;51.70;;;;;;5051411;28;1271;-65
2021/03/06 01:29:55;;;;;;;;;;;19.40;51.70;;;;;;5053082;28;1264;-65
2021/03/06 01:32:20;;;;;;;;;;;19.40;51.70;;;;;;5052911;28;1356;-66
2021/03/06 01:34:46;;;;;;;;;;;19.40;51.70;;;;;;5038416;28;1266;-65
2021/03/06 01:37:11;;;;;;;;;;;19.40;51.70;;;;;;5032493;28;1906;-65
2021/03/06 01:39:37;;;;;;;;;;;19.40;51.70;;;;;;5032125;28;1055;-66
2021/03/06 01:42:02;;;;;;;;;;;19.40;51.70;;;;;;5028179;28;1332;-64
2021/03/06 01:44:28;;;;;;;;;;;19.40;51.80;;;;;;5052617;28;1374;-64
2021/03/06 01:46:53;;;;;;;;;;;19.30;51.70;;;;;;5052788;28;1264;-64
2021/03/06 01:49:18;;;;;;;;;;;19.40;51.80;;;;;;5052761;28;1274;-65
2021/03/06 01:51:44;;;;;;;;;;;19.30;51.70;;;;;;5052692;28;1258;-65
2021/03/06 01:54:10;;;;;;;;;;;19.30;51.70;;;;;;5052348;28;1331;-65
2021/03/06 01:56:35;;;;;;;;;;;19.30;51.80;;;;;;5051503;28;1401;-64
2021/03/06 01:59:01;;;;;;;;;;;19.30;51.80;;;;;;5051044;28;1902;-65
2021/03/06 02:01:26;;;;;;;;;;;19.30;51.80;;;;;;5051698;28;1375;-65
2021/03/06 02:03:51;;;;;;;;;;;19.30;51.80;;;;;;5031699;28;1372;-65
2021/03/06 02:06:17;;;;;;;;;;;19.30;51.90;;;;;;5032559;28;1127;-65
2021/03/06 02:08:43;;;;;;;;;;;19.30;51.90;;;;;;5047717;28;1359;-65
2021/03/06 02:11:08;;;;;;;;;;;19.30;51.80;;;;;;5032367;28;1390;-64
2021/03/06 02:13:39;;;;;;;;;;;19.30;51.90;;;;;;5032667;28;1354;-65
2021/03/06 02:16:11;;;;;;;;;;;19.30;51.90;;;;;;5032479;28;1328;-65
2021/03/06 02:18:41;;;;;;;;;;;19.30;51.90;;;;;;5032221;28;1899;-65
2021/03/06 02:21:26;;;;;;;;;;;19.30;51.90;;;;;;5047547;28;1414;-64
2021/03/06 02:24:00;;;;;;;;;;;19.30;51.90;;;;;;5032640;28;1416;-65
2021/03/06 02:26:39;;;;;;;;;;;19.30;51.90;;;;;;5032403;28;1048;-64
2021/03/06 02:29:23;;;;;;;;;;;19.30;52.00;;;;;;5032233;28;1354;-65
2021/03/06 02:31:48;;;;;;;;;;;19.30;51.90;;;;;;5032496;28;1287;-64
2021/03/06 02:34:17;;;;;;;;;;;19.30;51.90;;;;;;5063926;22;3669;-70
2021/03/06 02:36:46;;;;;;;;;;;19.30;52.00;;;;;;5054190;28;1915;-69
2021/03/06 02:39:13;;;;;;;;;;;19.30;52.00;;;;;;5071087;28;1744;-70
2021/03/06 02:41:38;;;;;;;;;;;19.30;52.00;;;;;;5054236;28;1706;-69
2021/03/06 02:44:04;;;;;;;;;;;19.30;52.00;;;;;;5064497;28;1933;-68
2021/03/06 02:46:29;;;;;;;;;;;19.30;52.00;;;;;;5034446;28;1485;-69
2021/03/06 02:48:54;;;;;;;;;;;19.30;52.00;;;;;;5034184;28;1820;-69
2021/03/06 02:51:20;;;;;;;;;;;19.30;52.00;;;;;;5053920;28;1612;-69
2021/03/06 02:53:46;;;;;;;;;;;19.30;52.00;;;;;;5038334;28;1620;-68
2021/03/06 02:56:11;;;;;;;;;;;19.30;52.10;;;;;;5038234;28;1601;-68
2021/03/06 02:58:45;;;;;;;;;;;19.20;52.00;;;;;;5037717;28;1964;-69
2021/03/06 03:01:12;;;;;;;;;;;19.20;52.00;;;;;;5055979;28;1569;-69
2021/03/06 03:03:57;;;;;;;;;;;19.20;52.00;;;;;;5038016;28;1457;-69
2021/03/06 03:06:23;;;;;;;;;;;19.20;52.00;;;;;;5018167;28;1712;-69
2021/03/06 03:08:52;;;;;;;;;;;19.20;52.00;;;;;;5030955;28;1286;-69
2021/03/06 03:11:20;;;;;;;;;;;19.20;52.10;;;;;;5055779;28;1657;-69
2021/03/06 03:13:48;;;;;;;;;;;19.20;52.00;;;;;;5055672;28;1570;-69
2021/03/06 03:16:25;;;;;;;;;;;19.20;52.00;;;;;;5055928;28;1390;-68
2021/03/06 03:18:54;;;;;;;;;;;19.20;52.10;;;;;;5055540;28;1955;-68
2021/03/06 03:21:20;;;;;;;;;;;19.20;52.10;;;;;;5037874;28;1679;-69
2021/03/06 03:23:46;;;;;;;;;;;19.20;52.10;;;;;;5037688;28;1393;-69
2021/03/06 03:26:12;;;;;;;;;;;19.20;52.10;;;;;;5037612;28;1188;-69
2021/03/06 03:28:40;;;;;;;;;;;19.20;52.10;;;;;;5037563;28;1635;-69
2021/03/06 03:31:05;;;;;;;;;;;19.20;52.10;;;;;;5037427;28;1657;-69
2021/03/06 03:33:31;;;;;;;;;;;19.20;52.10;;;;;;5037677;28;1308;-71
2021/03/06 03:35:57;;;;;;;;;;;19.20;52.20;;;;;;5055250;28;1594;-71
2021/03/06 03:38:22;;;;;;;;;;;19.20;52.10;;;;;;5037221;28;1928;-71
2021/03/06 03:40:47;;;;;;;;;;;19.20;52.10;;;;;;5037425;28;1620;-70
2021/03/06 03:43:13;;;;;;;;;;;19.20;52.10;;;;;;5054170;28;1564;-68
2021/03/06 03:45:38;;;;;;;;;;;19.20;52.00;;;;;;5037296;28;1639;-68
2021/03/06 03:48:04;;;;;;;;;;;19.20;52.00;;;;;;5036932;28;1635;-68
2021/03/06 03:50:29;;;;;;;;;;;19.20;52.00;;;;;;5055171;28;1404;-68
2021/03/06 03:52:55;;;;;;;;;;;19.20;51.90;;;;;;5037064;28;1485;-68
2021/03/06 03:55:20;;;;;;;;;;;19.20;51.90;;;;;;5037234;28;1682;-68
2021/03/06 03:57:46;;;;;;;;;;;19.20;51.80;;;;;;5054638;28;1970;-68
2021/03/06 04:00:12;;;;;;;;;;;19.20;51.80;;;;;;5055041;28;1722;-68
2021/03/06 04:02:37;;;;;;;;;;;19.30;51.90;;;;;;5051238;28;1564;-70
2021/03/06 04:05:03;;;;;;;;;;;19.30;51.80;;;;;;5056817;28;1684;-70
2021/03/06 04:07:29;;;;;;;;;;;19.30;51.80;;;;;;5074232;28;1647;-70
2021/03/06 04:09:54;;;;;;;;;;;19.30;51.70;;;;;;5056961;28;1338;-70
2021/03/06 04:12:19;;;;;;;;;;;19.30;51.70;;;;;;5056792;28;1395;-69
2021/03/06 04:14:45;;;;;;;;;;;19.40;51.70;;;;;;5056651;28;1378;-70
2021/03/06 04:17:11;;;;;;;;;;;19.50;51.70;;;;;;5074226;28;1968;-68
2021/03/06 04:19:36;;;;;;;;;;;19.50;51.50;;;;;;5074520;28;1660;-68
2021/03/06 04:22:02;;;;;;;;;;;19.60;51.40;;;;;;5074296;28;1450;-68
2021/03/06 04:24:27;;;;;;;;;;;19.70;51.20;;;;;;5056405;28;1645;-68
2021/03/06 04:26:52;;;;;;;;;;;19.80;51.00;;;;;;5074373;28;1628;-68
2021/03/06 04:29:19;;;;;;;;;;;19.90;50.80;;;;;;5039583;28;1348;-68
2021/03/06 04:31:44;;;;;;;;;;;20.10;50.60;;;;;;5056441;28;1909;-67
2021/03/06 04:34:10;;;;;;;;;;;20.10;50.20;;;;;;5063434;28;1559;-68
2021/03/06 04:36:36;;;;;;;;;;;20.30;50.10;;;;;;5052858;28;1432;-68
2021/03/06 04:39:01;;;;;;;;;;;20.40;49.80;;;;;;5036197;28;1976;-68
2021/03/06 04:41:27;;;;;;;;;;;20.50;49.60;;;;;;5043625;28;1375;-68
2021/03/06 04:43:52;;;;;;;;;;;20.60;49.50;;;;;;5073973;28;1706;-68
2021/03/06 04:46:17;;;;;;;;;;;20.70;49.30;;;;;;5073934;28;1654;-69
2021/03/06 04:48:43;;;;;;;;;;;20.80;49.10;;;;;;5056007;28;1611;-69
2021/03/06 04:51:08;;;;;;;;;;;20.80;49.00;;;;;;5055897;28;1598;-67
2021/03/06 04:53:34;;;;;;;;;;;20.90;48.80;;;;;;5073924;28;1581;-67
2021/03/06 04:55:59;;;;;;;;;;;20.90;48.70;;;;;;5055965;28;1679;-71
2021/03/06 04:58:25;;;;;;;;;;;21.00;48.60;;;;;;5073535;28;1894;-68
2021/03/06 05:00:50;;;;;;;;;;;21.00;48.50;;;;;;5073726;28;1393;-68
2021/03/06 05:03:15;;;;;;;;;;;21.10;48.40;;;;;;5057331;28;1354;-68
2021/03/06 05:05:41;;;;;;;;;;;21.10;48.30;;;;;;5053558;28;1616;-68
2021/03/06 05:08:06;;;;;;;;;;;21.20;48.40;;;;;;5035431;28;1044;-69
2021/03/06 05:10:32;;;;;;;;;;;21.20;48.20;;;;;;5053558;28;1389;-70
2021/03/06 05:12:57;;;;;;;;;;;21.30;48.20;;;;;;5035735;28;1611;-69
2021/03/06 05:15:23;;;;;;;;;;;21.30;48.10;;;;;;5034687;28;1754;-69
2021/03/06 05:17:48;;;;;;;;;;;21.30;48.00;;;;;;5035182;28;1898;-70
2021/03/06 05:20:13;;;;;;;;;;;21.40;48.00;;;;;;5053262;28;1371;-69
2021/03/06 05:22:39;;;;;;;;;;;21.40;48.00;;;;;;5053411;28;1368;-69
2021/03/06 05:25:05;;;;;;;;;;;21.40;47.90;;;;;;5053230;28;1636;-69
2021/03/06 05:27:30;;;;;;;;;;;21.40;47.90;;;;;;5035255;28;1382;-69
2021/03/06 05:29:56;;;;;;;;;;;21.50;47.90;;;;;;5053168;28;1652;-69
2021/03/06 05:32:21;;;;;;;;;;;21.50;47.80;;;;;;5053170;28;1391;-68
2021/03/06 05:34:47;;;;;;;;;;;21.50;47.80;;;;;;5052799;28;1531;-68
2021/03/06 05:37:12;;;;;;;;;;;21.50;47.70;;;;;;5035007;28;1961;-68
2021/03/06 05:39:37;;;;;;;;;;;21.60;47.80;;;;;;5052944;28;1681;-68
2021/03/06 05:42:04;;;;;;;;;;;21.60;47.70;;;;;;5040117;28;1404;-68
2021/03/06 05:44:29;;;;;;;;;;;21.60;47.70;;;;;;5035295;28;1433;-68
2021/03/06 05:46:55;;;;;;;;;;;21.60;47.70;;;;;;5041942;28;1361;-68
2021/03/06 05:49:21;;;;;;;;;;;21.60;47.60;;;;;;5054844;28;1654;-68
2021/03/06 05:51:47;;;;;;;;;;;21.70;47.70;;;;;;5055150;28;1639;-70
2021/03/06 05:54:13;;;;;;;;;;;21.70;47.60;;;;;;5073008;28;1706;-70
2021/03/06 05:56:42;;;;;;;;;;;21.70;47.60;;;;;;5055171;28;1671;-70
2021/03/06 05:59:08;;;;;;;;;;;21.70;47.60;;;;;;5072191;28;1952;-68
2021/03/06 06:01:34;;;;;;;;;;;21.70;48.10;;;;;;5052440;28;1846;-67
2021/03/06 06:04:02;;;;;;;;;;;21.70;47.50;;;;;;5050655;28;1573;-67
2021/03/06 06:06:28;;;;;;;;;;;21.80;47.60;;;;;;5052359;28;1458;-67
2021/03/06 06:08:54;;;;;;;;;;;21.80;47.60;;;;;;5033552;28;1597;-70
2021/03/06 06:11:19;;;;;;;;;;;21.80;47.60;;;;;;5034371;28;1599;-70
2021/03/06 06:13:45;;;;;;;;;;;21.80;47.50;;;;;;5034744;28;1656;-70
2021/03/06 06:16:10;;;;;;;;;;;21.80;47.50;;;;;;5035023;28;1641;-70
2021/03/06 06:18:35;;;;;;;;;;;21.80;47.60;;;;;;5052257;28;1945;-69
2021/03/06 06:21:01;;;;;;;;;;;21.80;47.60;;;;;;5035035;28;1498;-69
2021/03/06 06:23:26;;;;;;;;;;;21.80;47.60;;;;;;5034698;28;1613;-70
2021/03/06 06:25:52;;;;;;;;;;;21.80;47.60;;;;;;5035866;28;1656;-70
2021/03/06 06:28:17;;;;;;;;;;;21.80;47.60;;;;;;5056313;28;1609;-70
2021/03/06 06:30:43;;;;;;;;;;;21.80;47.60;;;;;;5038735;28;1759;-70
2021/03/06 06:33:08;;;;;;;;;;;21.80;47.70;;;;;;5056334;28;1660;-69
2021/03/06 06:35:40;;;;;;;;;;;21.80;48.30;;;;;;5063830;28;1267;-70
2021/03/06 06:38:06;;;;;;;;;;;21.70;47.70;;;;;;5058291;28;1909;-69
2021/03/06 06:40:32;;;;;;;;;;;21.70;47.80;;;;;;5068852;28;1726;-70
2021/03/06 06:42:58;;;;;;;;;;;21.70;47.80;;;;;;5056246;28;1379;-70
2021/03/06 06:45:23;;;;;;;;;;;21.70;47.90;;;;;;5038355;28;1623;-70
2021/03/06 06:47:49;;;;;;;;;;;21.70;47.90;;;;;;5019589;28;1655;-68
2021/03/06 06:50:27;;;;;;;;;;;21.60;47.90;;;;;;5038479;28;1579;-68
2021/03/06 06:52:53;;;;;;;;;;;21.60;48.00;;;;;;5056224;28;1720;-67
2021/03/06 06:55:18;;;;;;;;;;;21.60;48.10;;;;;;5038479;28;1605;-67
2021/03/06 06:57:47;;;;;;;;;;;21.60;48.70;;;;;;5037713;28;1946;-67
2021/03/06 07:00:12;;;;;;;;;;;21.50;48.10;;;;;;5056037;28;1325;-67
2021/03/06 07:02:38;;;;;;;;;;;21.50;48.20;;;;;;5037951;28;1601;-67
2021/03/06 07:05:05;;;;;;;;;;;21.50;48.20;;;;;;5038152;28;1570;-67
2021/03/06 07:07:37;;;;;;;;;;;21.50;48.30;;;;;;5037747;28;1662;-69
2021/03/06 07:10:12;;;;;;;;;;;21.50;48.40;;;;;;5056040;28;1525;-69
2021/03/06 07:12:42;;;;;;;;;;;21.40;48.40;;;;;;5037129;28;1868;-68
2021/03/06 07:15:14;;;;;;;;;;;21.40;48.50;;;;;;5043901;28;1512;-69
2021/03/06 07:17:40;;;;;;;;;;;21.40;48.50;;;;;;5057504;28;1977;-69
2021/03/06 07:20:06;;;;;;;;;;;21.40;48.60;;;;;;5050650;28;1686;-70
2021/03/06 07:22:32;;;;;;;;;;;21.30;48.60;;;;;;5056131;28;1366;-71
2021/03/06 07:24:57;;;;;;;;;;;21.30;48.70;;;;;;5055025;28;1412;-67
2021/03/06 07:27:23;;;;;;;;;;;21.30;48.80;;;;;;5053003;28;1473;-65
2021/03/06 07:29:48;;;;;;;;;;;21.30;48.80;;;;;;5051661;28;1148;-67
2021/03/06 07:32:14;;;;;;;;;;;21.20;48.80;;;;;;5054298;28;1665;-67
2021/03/06 07:34:39;;;;;;;;;;;21.20;48.90;;;;;;5035958;28;1742;-67
2021/03/06 07:37:05;;;;;;;;;;;21.20;48.90;;;;;;5053020;28;1902;-68
2021/03/06 07:39:38;;;;;;;;;;;21.10;48.90;;;;;;5035456;28;1507;-66
2021/03/06 07:42:04;;;;;;;;;;;21.20;49.10;;;;;;5023461;28;1372;-67
2021/03/06 07:44:29;;;;;;;;;;;21.10;49.00;;;;;;5035947;28;1677;-67
2021/03/06 07:46:54;;;;;;;;;;;21.10;49.10;;;;;;5051802;28;1556;-68
2021/03/06 07:49:22;;;;;;;;;;;21.10;49.10;;;;;;5051242;28;1651;-67
2021/03/06 07:51:48;;;;;;;;;;;21.10;49.20;;;;;;5036608;28;1653;-68
2021/03/06 07:54:14;;;;;;;;;;;21.10;49.20;;;;;;5017480;28;1567;-67
2021/03/06 07:56:40;;;;;;;;;;;21.00;49.20;;;;;;5037269;28;1600;-67
2021/03/06 07:59:06;;;;;;;;;;;21.00;49.30;;;;;;5036699;28;1953;-65
2021/03/06 08:01:31;;;;;;;;;;;21.00;49.70;;;;;;5053326;28;1309;-68
2021/03/06 08:03:58;;;;;;;;;;;21.00;49.40;;;;;;5049236;28;1275;-67
2021/03/06 08:06:29;;;;;;;;;;;20.90;49.40;;;;;;5055217;28;1677;-67
2021/03/06 08:08:55;;;;;;;;;;;20.90;49.40;;;;;;5054398;28;1647;-68
2021/03/06 08:11:24;;;;;;;;;;;20.90;49.50;;;;;;5054900;28;1364;-69
2021/03/06 08:13:56;;;;;;;;;;;20.90;49.50;;;;;;5036671;28;1662;-69
2021/03/06 08:16:27;;;;;;;;;;;20.90;49.60;;;;;;5054818;28;1575;-68
2021/03/06 08:19:01;;;;;;;;;;;20.80;49.60;;;;;;5054253;28;1901;-68
2021/03/06 08:21:37;;;;;;;;;;;20.80;50.30;;;;;;5054468;28;1366;-68
2021/03/06 08:24:18;;;;;;;;;;;20.80;49.70;;;;;;5054543;28;1707;-68
2021/03/06 08:26:51;;;;;;;;;;;20.80;49.80;;;;;;5054612;28;1745;-68
2021/03/06 08:29:23;;;;;;;;;;;20.80;49.80;;;;;;5037474;28;1619;-68
2021/03/06 08:32:02;;;;;;;;;;;20.80;49.80;;;;;;5054412;28;1679;-68
2021/03/06 08:34:27;;;;;;;;;;;20.70;49.80;;;;;;5036655;28;1570;-67
2021/03/06 08:37:12;;;;;;;;;;;20.70;49.90;;;;;;5054351;28;1911;-67
2021/03/06 08:39:37;;;;;;;;;;;20.70;50.00;;;;;;5054004;28;1417;-67
2021/03/06 08:42:02;;;;;;;;;;;20.70;50.00;;;;;;5040268;28;1280;-68
2021/03/06 08:44:28;;;;;;;;;;;20.70;50.00;;;;;;5053527;28;1306;-68
2021/03/06 08:46:53;;;;;;;;;;;20.60;50.00;;;;;;5036269;28;1288;-67
2021/03/06 08:49:19;;;;;;;;;;;20.60;50.00;;;;;;5035573;28;1276;-67
2021/03/06 08:51:44;;;;;;;;;;;20.60;50.10;;;;;;5053983;28;1285;-67
2021/03/06 08:54:10;;;;;;;;;;;20.60;50.10;;;;;;5053634;28;1303;-67
2021/03/06 08:56:38;;;;;;;;;;;20.60;50.20;;;;;;5035948;28;1277;-67
2021/03/06 08:59:04;;;;;;;;;;;20.60;50.20;;;;;;5035388;28;1953;-67
2021/03/06 09:01:35;;;;;;;;;;;20.50;50.10;;;;;;5052245;28;1334;-67
2021/03/06 09:04:00;;;;;;;;;;;20.50;50.20;;;;;;5046627;28;1322;-65
2021/03/06 09:06:35;;;;;;;;;;;20.50;50.20;;;;;;5049192;28;1287;-66
2021/03/06 09:09:01;;;;;;;;;;;20.50;50.30;;;;;;5033030;28;1330;-66
2021/03/06 09:11:28;;;;;;;;;;;20.50;50.30;;;;;;5047453;28;987;-66
2021/03/06 09:13:54;;;;;;;;;;;20.50;50.30;;;;;;5064388;28;1332;-66
2021/03/06 09:16:19;;;;;;;;;;;20.50;50.30;;;;;;5070986;28;1263;-67
2021/03/06 09:18:45;;;;;;;;;;;20.50;50.30;;;;;;5046844;28;1894;-67
2021/03/06 09:21:15;;;;;;;;;;;20.50;50.40;;;;;;5070039;28;1278;-66
2021/03/06 09:23:44;;;;;;;;;;;20.40;50.40;;;;;;5065258;28;1236;-67
2021/03/06 09:26:16;;;;;;;;;;;20.40;50.40;;;;;;5054986;28;1358;-66
2021/03/06 09:28:41;;;;;;;;;;;20.40;50.50;;;;;;5055594;28;1339;-67
2021/03/06 09:31:09;;;;;;;;;;;20.40;50.50;;;;;;5069864;28;1252;-67
2021/03/06 09:33:35;;;;;;;;;;;20.40;50.50;;;;;;5064113;28;1472;-67
2021/03/06 09:36:04;;;;;;;;;;;20.40;50.60;;;;;;5054982;28;1255;-68
2021/03/06 09:38:30;;;;;;;;;;;20.40;50.60;;;;;;5064746;28;1918;-68
2021/03/06 09:40:55;;;;;;;;;;;20.40;50.60;;;;;;5035614;28;992;-68
2021/03/06 09:43:41;;;;;;;;;;;20.40;50.60;;;;;;5052725;28;1354;-68
2021/03/06 09:46:16;;;;;;;;;;;20.30;50.60;;;;;;5052909;28;1237;-67
2021/03/06 09:48:48;;;;;;;;;;;20.30;50.70;;;;;;5050789;28;996;-68
2021/03/06 09:51:13;;;;;;;;;;;20.30;50.70;;;;;;5070486;28;1273;-67
2021/03/06 09:53:39;;;;;;;;;;;20.30;50.70;;;;;;5043063;28;1244;-67
2021/03/06 09:56:11;;;;;;;;;;;20.30;50.70;;;;;;5062304;28;1311;-67
2021/03/06 09:58:37;;;;;;;;;;;20.20;50.70;;;;;;5072703;28;1957;-68
2021/03/06 10:01:13;;;;;;;;;;;20.30;50.80;;;;;;5054313;28;1291;-67
2021/03/06 10:03:38;;;;;;;;;;;20.30;50.80;;;;;;5049509;28;1845;-67
2021/03/06 10:06:04;;;;;;;;;;;20.20;50.80;;;;;;5047357;28;1073;-67
2021/03/06 10:08:30;;;;;;;;;;;20.20;50.80;;;;;;5033547;28;1231;-67
2021/03/06 10:10:56;;;;;;;;;;;20.20;50.90;;;;;;5033727;28;1081;-67
2021/03/06 10:13:21;;;;;;;;;;;20.20;50.90;;;;;;5048297;28;1314;-67
2021/03/06 10:15:47;;;;;;;;;;;20.20;50.90;;;;;;5048173;28;1149;-66
2021/03/06 10:18:12;;;;;;;;;;;20.20;51.00;;;;;;5045058;28;1907;-68
2021/03/06 10:20:38;;;;;;;;;;;20.20;51.00;;;;;;5046969;28;1288;-67
2021/03/06 10:23:03;;;;;;;;;;;20.20;51.00;;;;;;5026446;28;1229;-66
2021/03/06 10:25:29;;;;;;;;;;;20.20;51.00;;;;;;5048509;28;1283;-67
2021/03/06 10:27:54;;;;;;;;;;;20.10;51.00;;;;;;5045449;28;1236;-66
2021/03/06 10:30:21;;;;;;;;;;;20.10;51.10;;;;;;5047633;28;1268;-66
2021/03/06 10:32:47;;;;;;;;;;;20.10;51.10;;;;;;5045523;28;1268;-66
2021/03/06 10:35:28;;;;;;;;;;;20.10;51.10;;;;;;5044528;28;1275;-67
2021/03/06 10:37:53;;;;;;;;;;;20.10;51.10;;;;;;5026425;28;1914;-67
2021/03/06 10:40:19;;;;;;;;;;;20.10;51.10;;;;;;5048609;28;1374;-67
2021/03/06 10:42:45;;;;;;;;;;;20.10;51.10;;;;;;5046135;28;1244;-66
2021/03/06 10:45:24;;;;;;;;;;;20.10;51.20;;;;;;5044394;28;1509;-68
2021/03/06 10:47:50;;;;;;;;;;;20.10;51.20;;;;;;5045726;28;1315;-67
2021/03/06 10:50:21;;;;;;;;;;;20.10;51.80;;;;;;5027540;28;1307;-67
2021/03/06 10:52:47;;;;;;;;;;;20.10;51.30;;;;;;5047114;28;1294;-67
2021/03/06 10:55:12;;;;;;;;;;;20.00;51.20;;;;;;5046230;28;1283;-67
2021/03/06 10:57:50;;;;;;;;;;;20.10;51.30;;;;;;5026208;28;1895;-67
2021/03/06 11:00:20;;;;;;;;;;;20.00;51.30;;;;;;5062467;28;1243;-67
2021/03/06 11:02:53;;;;;;;;;;;20.00;51.30;;;;;;5060220;28;1051;-67
2021/03/06 11:05:19;;;;;;;;;;;20.00;51.30;;;;;;5034357;28;1592;-67
2021/03/06 11:07:44;;;;;;;;;;;20.00;51.30;;;;;;5034012;28;1305;-67
2021/03/06 11:10:10;;;;;;;;;;;20.00;51.30;;;;;;5052214;28;1307;-67
2021/03/06 11:12:35;;;;;;;;;;;20.00;51.30;;;;;;5052120;28;1141;-68
2021/03/06 11:15:10;;;;;;;;;;;20.00;51.30;;;;;;5037784;28;1307;-68
2021/03/06 11:17:35;;;;;;;;;;;20.00;51.30;;;;;;5055290;28;1957;-67
2021/03/06 11:20:01;;;;;;;;;;;20.00;51.30;;;;;;5033610;28;1285;-68
2021/03/06 11:22:27;;;;;;;;;;;20.00;51.30;;;;;;5057815;28;1870;-67
2021/03/06 11:24:53;;;;;;;;;;;20.00;51.40;;;;;;5075261;28;1442;-67
2021/03/06 11:27:18;;;;;;;;;;;20.00;51.40;;;;;;5075657;28;1091;-67
2021/03/06 11:29:44;;;;;;;;;;;20.00;51.40;;;;;;5040998;28;1375;-67
2021/03/06 11:32:10;;;;;;;;;;;20.00;51.40;;;;;;5057388;28;1414;-67
2021/03/06 11:34:35;;;;;;;;;;;19.90;51.40;;;;;;5062341;28;1363;-67
2021/03/06 11:37:01;;;;;;;;;;;19.90;51.30;;;;;;5053775;28;1969;-67
2021/03/06 11:39:26;;;;;;;;;;;19.90;51.90;;;;;;5054996;28;1076;-67
2021/03/06 11:41:51;;;;;;;;;;;19.90;51.40;;;;;;5047630;28;1410;-67
2021/03/06 11:44:17;;;;;;;;;;;19.90;51.40;;;;;;5075008;28;1373;-67
2021/03/06 11:46:42;;;;;;;;;;;19.90;51.40;;;;;;5075057;28;1373;-67
2021/03/06 11:49:08;;;;;;;;;;;19.90;51.40;;;;;;5074630;28;1331;-67
2021/03/06 11:51:33;;;;;;;;;;;19.90;51.40;;;;;;5057111;28;1296;-67
2021/03/06 11:53:58;;;;;;;;;;;19.90;51.40;;;;;;5056685;28;1817;-67
2021/03/06 11:56:24;;;;;;;;;;;19.90;51.40;;;;;;5074843;28;1307;-67
2021/03/06 11:58:49;;;;;;;;;;;19.90;51.40;;;;;;5074441;28;1894;-66
2021/03/06 12:01:15;;;;;;;;;;;19.90;51.40;;;;;;5075025;28;1372;-67
2021/03/06 12:03:40;;;;;;;;;;;19.90;51.40;;;;;;5037297;28;1280;-67
2021/03/06 12:06:06;;;;;;;;;;;19.90;51.40;;;;;;5054578;28;1370;-66
2021/03/06 12:08:31;;;;;;;;;;;19.90;51.40;;;;;;5054120;28;1406;-66
2021/03/06 12:10:56;;;;;;;;;;;19.90;51.40;;;;;;5054345;28;1331;-67
2021/03/06 12:13:22;;;;;;;;;;;19.90;51.40;;;;;;5042359;28;2175;-69
2021/03/06 12:15:47;;;;;;;;;;;19.90;51.50;;;;;;5058655;28;1103;-70
2021/03/06 12:18:13;;;;;;;;;;;19.90;51.50;;;;;;5056924;28;1953;-68
2021/03/06 12:20:38;;;;;;;;;;;19.90;51.50;;;;;;5054421;28;1370;-67
2021/03/06 12:23:04;;;;;;;;;;;19.90;51.50;;;;;;5047579;28;1886;-70
2021/03/06 12:25:29;;;;;;;;;;;19.80;51.50;;;;;;5050159;28;1208;-68
2021/03/06 12:27:55;;;;;;;;;;;19.80;51.50;;;;;;5048566;28;1099;-69
2021/03/06 12:30:20;;;;;;;;;;;19.90;51.50;;;;;;5053065;28;1341;-70
2021/03/06 12:32:48;;;;;;;;;;;19.80;51.40;;;;;;5036961;28;1057;-69
2021/03/06 12:35:14;;;;;;;;;;;19.80;51.50;;;;;;5036609;28;1281;-70
2021/03/06 12:37:39;;;;;;;;;;;19.90;51.60;;;;;;5053827;28;1957;-69
2021/03/06 12:40:06;;;;;;;;;;;19.90;51.50;;;;;;5050555;28;1403;-70
2021/03/06 12:42:31;;;;;;;;;;;19.80;51.50;;;;;;5044447;28;1268;-70
2021/03/06 12:44:57;;;;;;;;;;;19.80;51.50;;;;;;5053777;28;1327;-70
2021/03/06 12:47:22;;;;;;;;;;;19.80;51.50;;;;;;5053966;28;1338;-69
2021/03/06 12:49:47;;;;;;;;;;;19.80;51.50;;;;;;5053754;28;1158;-70
2021/03/06 12:52:13;;;;;;;;;;;19.80;51.50;;;;;;5053974;28;1372;-68
2021/03/06 12:54:38;;;;;;;;;;;19.80;51.50;;;;;;5053390;28;1398;-69
2021/03/06 12:57:04;;;;;;;;;;;19.80;51.60;;;;;;5053472;28;1953;-68
2021/03/06 12:59:29;;;;;;;;;;;19.80;51.60;;;;;;5053592;28;1339;-69
2021/03/06 13:01:55;;;;;;;;;;;19.80;51.50;;;;;;5048969;28;1346;-69
2021/03/06 13:04:20;;;;;;;;;;;19.80;51.50;;;;;;5048351;28;1784;-69
2021/03/06 13:06:47;;;;;;;;;;;19.80;51.40;;;;;;5050326;28;1151;-69
2021/03/06 13:09:13;;;;;;;;;;;19.90;51.40;;;;;;5032843;28;1205;-70
2021/03/06 13:11:38;;;;;;;;;;;19.90;51.30;;;;;;5060249;28;1048;-69
2021/03/06 13:14:04;;;;;;;;;;;19.90;51.20;;;;;;5072175;28;1402;-69
2021/03/06 13:16:29;;;;;;;;;;;20.00;51.10;;;;;;5072471;28;1061;-68
2021/03/06 13:18:55;;;;;;;;;;;20.00;51.10;;;;;;5071571;28;1910;-69
2021/03/06 13:21:20;;;;;;;;;;;20.10;51.00;;;;;;5047986;28;1371;-69
2021/03/06 13:23:46;;;;;;;;;;;20.10;50.90;;;;;;5049955;28;2115;-69
2021/03/06 13:26:11;;;;;;;;;;;20.20;50.80;;;;;;5047345;28;1873;-69
2021/03/06 13:28:36;;;;;;;;;;;20.20;50.70;;;;;;5054444;28;1436;-70
2021/03/06 13:31:02;;;;;;;;;;;20.40;50.60;;;;;;5061188;28;1281;-69
2021/03/06 13:33:27;;;;;;;;;;;20.40;50.40;;;;;;5067509;28;1329;-69
2021/03/06 13:35:53;;;;;;;;;;;20.50;50.30;;;;;;5058745;28;1043;-69
2021/03/06 13:38:18;;;;;;;;;;;20.60;50.10;;;;;;5049448;28;1961;-69
2021/03/06 13:40:44;;;;;;;;;;;20.60;49.90;;;;;;5043710;28;2178;-69
2021/03/06 13:43:09;;;;;;;;;;;20.70;49.80;;;;;;5051248;28;1165;-69
2021/03/06 13:45:35;;;;;;;;;;;20.80;49.70;;;;;;5061081;28;1322;-70
2021/03/06 13:48:00;;;;;;;;;;;20.80;49.60;;;;;;5071747;28;1291;-68
2021/03/06 13:50:30;;;;;;;;;;;20.80;49.40;;;;;;5071193;28;1273;-69
2021/03/06 13:52:56;;;;;;;;;;;20.90;49.40;;;;;;5071376;28;1271;-69
2021/03/06 13:55:22;;;;;;;;;;;21.00;49.30;;;;;;5071461;28;1267;-70
2021/03/06 13:57:47;;;;;;;;;;;20.90;49.20;;;;;;5071236;28;1898;-69
2021/03/06 14:00:13;;;;;;;;;;;21.00;49.20;;;;;;5058569;28;1158;-68
2021/03/06 14:02:38;;;;;;;;;;;21.10;49.10;;;;;;5046713;28;1232;-70
2021/03/06 14:05:04;;;;;;;;;;;21.10;49.10;;;;;;5071263;28;1334;-68
2021/03/06 14:07:29;;;;;;;;;;;21.10;49.00;;;;;;5070470;28;1364;-68
2021/03/06 14:09:55;;;;;;;;;;;21.20;49.00;;;;;;5059080;28;2159;-68
2021/03/06 14:12:21;;;;;;;;;;;21.20;48.90;;;;;;5043966;28;1310;-69
2021/03/06 14:14:46;;;;;;;;;;;21.20;48.90;;;;;;5044717;28;1337;-70
2021/03/06 14:17:11;;;;;;;;;;;21.20;48.90;;;;;;5050602;28;1989;-68
2021/03/06 14:19:37;;;;;;;;;;;21.20;49.00;;;;;;5046521;28;1210;-69
2021/03/06 14:22:02;;;;;;;;;;;21.20;48.80;;;;;;5067342;28;1334;-68
2021/03/06 14:24:28;;;;;;;;;;;21.20;48.80;;;;;;5071282;28;1362;-69
2021/03/06 14:26:53;;;;;;;;;;;21.20;48.80;;;;;;5048676;28;1251;-69
2021/03/06 14:29:19;;;;;;;;;;;21.20;48.80;;;;;;5042751;28;1312;-69